createdAt,value
2019-02-12T00:02:23.816Z,103359.86
2019-02-12T00:05:26.969Z,103356.39
2019-02-12T00:08:30.057Z,103351.76
2019-02-12T00:11:33.159Z,103359.18
2019-02-12T00:14:36.236Z,103357.85
2019-02-12T00:17:39.318Z,103354.06
2019-02-12T00:20:42.407Z,103353.16
2019-02-12T00:23:45.509Z,103349.42
2019-02-12T00:26:48.598Z,103352.20
2019-02-12T00:29:51.705Z,103365.83
2019-02-12T00:32:54.813Z,103378.47
2019-02-12T00:35:57.906Z,103381.45
2019-02-12T00:39:01.077Z,103393.94
2019-02-12T00:42:04.167Z,103402.48
2019-02-12T00:45:07.326Z,103403.91
2019-02-12T00:48:10.452Z,103413.25
2019-02-12T00:51:17.828Z,103415.48
2019-02-12T00:54:16.645Z,103426.11
2019-02-12T00:57:19.741Z,103434.23
2019-02-12T01:00:22.827Z,103433.74
2019-02-12T01:03:25.887Z,103441.00
2019-02-12T01:06:28.939Z,103440.08
2019-02-12T01:09:32.100Z,103445.72
2019-02-12T01:12:35.199Z,103448.77
2019-02-12T01:15:38.286Z,103452.29
2019-02-12T01:18:41.979Z,103444.88
2019-02-12T01:21:45.085Z,103447.26
2019-02-12T01:24:48.210Z,103439.84
2019-02-12T01:27:51.368Z,103429.76
2019-02-12T01:30:55.491Z,103414.24
2019-02-12T01:33:58.558Z,103415.32
2019-02-12T01:37:01.712Z,103427.73
2019-02-12T01:40:04.792Z,103434.71
2019-02-12T01:43:08.018Z,103435.68
2019-02-12T01:46:11.158Z,103445.84
2019-02-12T01:49:14.228Z,103457.40
2019-02-12T01:52:17.299Z,103468.14
2019-02-12T01:55:20.430Z,103472.79
2019-02-12T01:58:23.548Z,103473.65
2019-02-12T02:01:26.594Z,103470.99
2019-02-12T02:04:29.701Z,103480.19
2019-02-12T02:07:32.793Z,103474.67
2019-02-12T02:10:35.875Z,103471.90
2019-02-12T02:13:39.078Z,103477.12
2019-02-12T02:16:42.175Z,103476.93
2019-02-12T02:19:45.254Z,103478.73
2019-02-12T02:22:48.344Z,103491.02
2019-02-12T02:25:51.439Z,103485.58
2019-02-12T02:28:54.518Z,103478.66
2019-02-12T02:31:57.625Z,103479.60
2019-02-12T02:35:00.712Z,103479.01
2019-02-12T02:38:03.814Z,103473.38
2019-02-12T02:41:06.900Z,103479.90
2019-02-12T02:44:10.018Z,103486.37
2019-02-12T02:47:13.096Z,103502.70
2019-02-12T02:50:16.186Z,103504.60
2019-02-12T02:53:19.267Z,103502.71
2019-02-12T02:56:22.356Z,103507.47
2019-02-12T02:59:25.478Z,103509.32
2019-02-12T03:02:28.549Z,103515.24
2019-02-12T03:05:31.648Z,103521.29
2019-02-12T03:08:34.738Z,103519.98
2019-02-12T03:11:37.798Z,103522.36
2019-02-12T03:14:40.927Z,103531.69
2019-02-12T03:17:44.259Z,103530.68
2019-02-12T03:20:47.400Z,103540.35
2019-02-12T03:23:50.491Z,103540.97
2019-02-12T03:26:53.591Z,103543.58
2019-02-12T03:29:56.664Z,103542.81
2019-02-12T03:32:59.769Z,103548.71
2019-02-12T03:36:02.880Z,103549.89
2019-02-12T03:39:06.141Z,103551.94
2019-02-12T03:42:09.228Z,103548.25
2019-02-12T03:45:12.360Z,103546.73
2019-02-12T03:48:15.431Z,103549.84
2019-02-12T03:51:18.511Z,103544.80
2019-02-12T03:54:21.633Z,103543.38
2019-02-12T03:57:24.703Z,103547.71
2019-02-12T04:00:27.800Z,103548.12
2019-02-12T04:03:30.897Z,103552.48
2019-02-12T04:06:33.987Z,103555.61
2019-02-12T04:09:37.084Z,103554.11
2019-02-12T04:12:40.185Z,103554.65
2019-02-12T04:15:43.262Z,103561.88
2019-02-12T04:18:46.353Z,103561.64
2019-02-12T04:21:49.437Z,103559.66
2019-02-12T04:24:52.527Z,103556.69
2019-02-12T04:27:55.778Z,103561.69
2019-02-12T04:30:58.733Z,103555.43
2019-02-12T04:34:01.927Z,103556.37
2019-02-12T04:37:05.122Z,103559.86
2019-02-12T04:40:08.828Z,103561.98
2019-02-12T04:43:11.912Z,103560.09
2019-02-12T04:46:15.020Z,103565.47
2019-02-12T04:49:18.200Z,103561.22
2019-02-12T04:52:21.268Z,103566.73
2019-02-12T04:55:24.371Z,103562.45
2019-02-12T04:58:27.460Z,103564.94
2019-02-12T05:01:30.556Z,103574.06
2019-02-12T05:04:33.656Z,103566.23
2019-02-12T05:07:36.748Z,103572.26
2019-02-12T05:10:43.689Z,103572.17
2019-02-12T05:13:46.824Z,103573.72
2019-02-12T05:16:49.903Z,103570.34
2019-02-12T05:19:53.002Z,103570.86
2019-02-12T05:22:56.093Z,103564.06
2019-02-12T05:25:59.166Z,103572.40
2019-02-12T05:29:02.266Z,103576.75
2019-02-12T05:32:05.355Z,103575.88
2019-02-12T05:35:08.424Z,103573.85
2019-02-12T05:38:11.553Z,103577.65
2019-02-12T05:41:14.645Z,103586.16
2019-02-12T05:44:17.758Z,103592.03
2019-02-12T05:47:20.824Z,103601.23
2019-02-12T05:50:23.935Z,103609.42
2019-02-12T05:53:27.012Z,103609.42
2019-02-12T05:56:30.104Z,103607.20
2019-02-12T05:59:33.210Z,103609.15
2019-02-12T06:02:36.388Z,103611.87
2019-02-12T06:05:39.521Z,103612.17
2019-02-12T06:08:42.673Z,103611.48
2019-02-12T06:11:45.775Z,103608.68
2019-02-12T06:14:48.851Z,103609.31
2019-02-12T06:17:51.951Z,103610.62
2019-02-12T06:20:55.025Z,103610.89
2019-02-12T06:23:58.442Z,103612.06
2019-02-12T06:27:01.516Z,103617.25
2019-02-12T06:30:04.797Z,103617.65
2019-02-12T06:33:07.989Z,103617.98
2019-02-12T06:36:10.958Z,103623.51
2019-02-12T06:39:14.016Z,103624.00
2019-02-12T06:42:17.088Z,103634.32
2019-02-12T06:45:20.196Z,103639.45
2019-02-12T06:48:23.285Z,103643.39
2019-02-12T06:51:26.376Z,103646.69
2019-02-12T06:54:29.459Z,103656.12
2019-02-12T06:57:32.572Z,103658.09
2019-02-12T07:00:35.852Z,103659.81
2019-02-12T07:03:54.309Z,103668.64
2019-02-12T07:07:23.044Z,103675.86
2019-02-12T07:10:30.716Z,103675.72
2019-02-12T07:13:41.520Z,103672.06
2019-02-12T07:19:10.621Z,103685.50
2019-02-12T07:23:39.703Z,103683.48
2019-02-12T07:27:05.541Z,103685.61
2019-02-12T07:30:22.808Z,103689.90
2019-02-12T07:33:35.876Z,103688.46
2019-02-12T07:37:00.588Z,103686.39
2019-02-12T07:40:15.542Z,103694.53
2019-02-12T07:44:28.835Z,103698.39
2019-02-12T07:47:44.812Z,103703.53
2019-02-12T07:50:56.393Z,103705.75
2019-02-12T07:56:14.175Z,103705.73
2019-02-12T07:59:58.949Z,103702.22
2019-02-12T08:04:15.864Z,103712.77
2019-02-12T08:07:29.761Z,103719.70
2019-02-12T08:10:52.194Z,103723.61
2019-02-12T08:14:08.957Z,103725.04
2019-02-12T08:17:41.211Z,103731.28
2019-02-12T08:22:56.012Z,103733.05
2019-02-12T08:26:13.856Z,103745.10
2019-02-12T08:30:29.247Z,103753.32
2019-02-12T08:34:51.111Z,103755.96
2019-02-12T08:40:05.852Z,103766.23
2019-02-12T08:43:22.395Z,103775.69
2019-02-12T08:46:36.709Z,103767.91
2019-02-12T08:49:50.660Z,103773.11
2019-02-12T08:53:02.448Z,103769.98
2019-02-12T08:58:17.856Z,103774.98
2019-02-12T09:03:50.044Z,103772.83
2019-02-12T09:07:08.872Z,103774.86
2019-02-12T09:10:24.977Z,103775.64
2019-02-12T09:13:45.059Z,103779.87
2019-02-12T09:18:59.714Z,103786.61
2019-02-12T09:24:19.090Z,103793.95
2019-02-12T09:27:33.846Z,103801.09
2019-02-12T09:30:50.856Z,103804.98
2019-02-12T09:34:05.861Z,103808.18
2019-02-12T09:37:20.335Z,103811.45
2019-02-12T09:40:34.803Z,103810.62
2019-02-12T09:43:56.600Z,103814.30
2019-02-12T09:47:33.601Z,103816.03
2019-02-12T09:50:54.677Z,103809.60
2019-02-12T09:54:10.651Z,103818.65
2019-02-12T09:59:26.825Z,103822.00
2019-02-12T10:02:40.808Z,103815.50
2019-02-12T10:07:59.688Z,103822.91
2019-02-12T10:11:27.459Z,103827.93
2019-02-12T10:14:40.456Z,103838.06
2019-02-12T10:17:53.795Z,103833.82
2019-02-12T10:21:06.033Z,103841.15
2019-02-12T10:24:24.244Z,103839.84
2019-02-12T10:29:47.339Z,103848.26
2019-02-12T10:32:50.504Z,103842.69
2019-02-12T10:35:53.674Z,103838.98
2019-02-12T10:38:56.764Z,103838.17
2019-02-12T10:41:59.853Z,103843.75
2019-02-12T10:45:02.958Z,103837.57
2019-02-12T10:48:06.044Z,103838.20
2019-02-12T10:51:09.148Z,103834.78
2019-02-12T10:54:13.575Z,103833.30
2019-02-12T10:57:15.527Z,103834.44
2019-02-12T11:00:18.603Z,103836.78
2019-02-12T11:03:21.688Z,103827.23
2019-02-12T11:06:24.804Z,103829.93
2019-02-12T11:09:27.986Z,103823.73
2019-02-12T11:12:31.084Z,103824.71
2019-02-12T11:15:34.169Z,103823.82
2019-02-12T11:18:37.255Z,103827.70
2019-02-12T11:21:40.348Z,103818.23
2019-02-12T11:24:43.441Z,103820.75
2019-02-12T11:27:46.536Z,103822.81
2019-02-12T11:30:49.636Z,103819.42
2019-02-12T11:33:52.715Z,103821.77
2019-02-12T11:36:55.800Z,103829.88
2019-02-12T11:39:58.891Z,103827.60
2019-02-12T11:43:01.983Z,103836.32
2019-02-12T11:46:05.085Z,103827.89
2019-02-12T11:49:08.164Z,103829.02
2019-02-12T11:52:11.269Z,103826.69
2019-02-12T11:55:14.392Z,103826.09
2019-02-12T11:58:17.556Z,103828.56
2019-02-12T12:01:23.136Z,103823.38
2019-02-12T12:04:26.204Z,103823.31
2019-02-12T12:07:29.264Z,103822.81
2019-02-12T12:10:32.330Z,103827.16
2019-02-12T12:13:35.487Z,103827.60
2019-02-12T12:16:38.560Z,103828.63
2019-02-12T12:19:41.656Z,103827.53
2019-02-12T12:22:44.762Z,103822.16
2019-02-12T12:25:47.848Z,103820.34
2019-02-12T12:28:50.942Z,103816.99
2019-02-12T12:31:54.047Z,103821.83
2019-02-12T12:34:59.095Z,103820.24
2019-02-12T12:38:00.329Z,103815.71
2019-02-12T12:41:04.438Z,103806.27
2019-02-12T12:44:07.561Z,103806.99
2019-02-12T12:47:10.762Z,103805.59
2019-02-12T12:50:13.914Z,103809.72
2019-02-12T12:53:17.000Z,103808.88
2019-02-12T12:56:20.119Z,103800.93
2019-02-12T12:59:23.187Z,103804.23
2019-02-12T13:02:26.280Z,103803.32
2019-02-12T13:05:29.371Z,103801.08
2019-02-12T13:08:32.459Z,103797.13
2019-02-12T13:11:35.562Z,103801.21
2019-02-12T13:14:38.648Z,103801.43
2019-02-12T13:17:41.752Z,103808.92
2019-02-12T13:20:44.844Z,103807.42
2019-02-12T13:23:47.913Z,103799.42
2019-02-12T13:26:50.991Z,103797.97
2019-02-12T13:29:54.128Z,103794.78
2019-02-12T13:32:57.312Z,103784.88
2019-02-12T13:36:00.460Z,103790.41
2019-02-12T13:39:05.297Z,103795.62
2019-02-12T13:42:08.365Z,103794.22
2019-02-12T13:45:12.761Z,103791.55
2019-02-12T13:48:15.935Z,103790.87
2019-02-12T13:51:19.034Z,103792.32
2019-02-12T13:54:22.130Z,103796.91
2019-02-12T13:57:25.218Z,103800.56
2019-02-12T14:00:28.279Z,103794.49
2019-02-12T14:03:31.456Z,103790.45
2019-02-12T14:06:34.498Z,103792.03
2019-02-12T14:09:37.587Z,103794.33
2019-02-12T14:12:40.685Z,103799.16
2019-02-12T14:15:43.772Z,103798.20
2019-02-12T14:18:46.824Z,103791.08
2019-02-12T14:21:49.895Z,103789.00
2019-02-12T14:24:53.063Z,103789.53
2019-02-12T14:27:56.255Z,103787.95
2019-02-12T14:30:59.440Z,103791.72
2019-02-12T14:34:02.572Z,103785.66
2019-02-12T14:37:05.714Z,103795.96
2019-02-12T14:40:09.744Z,103800.63
2019-02-12T14:43:14.377Z,103807.39
2019-02-12T14:46:15.879Z,103810.75
2019-02-12T14:49:19.035Z,103806.08
2019-02-12T14:52:22.212Z,103806.49
2019-02-12T14:55:33.347Z,103808.53
2019-02-12T14:58:28.585Z,103802.51
2019-02-12T15:01:36.484Z,103809.57
2019-02-12T15:04:39.598Z,103808.09
2019-02-12T15:07:42.719Z,103811.09
2019-02-12T15:10:45.815Z,103812.25
2019-02-12T15:13:48.983Z,103806.27
2019-02-12T15:16:52.178Z,103804.61
2019-02-12T15:19:55.361Z,103808.83
2019-02-12T15:22:58.484Z,103808.01
2019-02-12T15:26:01.661Z,103813.72
2019-02-12T15:29:04.850Z,103810.41
2019-02-12T15:32:07.910Z,103808.00
2019-02-12T15:35:11.048Z,103807.12
2019-02-12T15:38:14.123Z,103809.18
2019-02-12T15:41:17.224Z,103811.88
2019-02-12T15:44:20.334Z,103813.91
2019-02-12T15:47:23.532Z,103816.21
2019-02-12T15:50:26.699Z,103818.03
2019-02-12T15:53:29.795Z,103812.73
2019-02-12T15:56:32.891Z,103806.76
2019-02-12T15:59:36.111Z,103810.69
2019-02-12T16:02:39.472Z,103814.44
2019-02-12T16:05:42.563Z,103819.15
2019-02-12T16:08:45.679Z,103822.73
2019-02-12T16:11:48.860Z,103822.35
2019-02-12T16:14:53.060Z,103825.74
2019-02-12T16:17:55.028Z,103826.47
2019-02-12T16:20:58.133Z,103826.11
2019-02-12T16:24:01.231Z,103828.08
2019-02-12T16:27:04.303Z,103832.65
2019-02-12T16:30:10.286Z,103833.21
2019-02-12T16:33:13.420Z,103838.35
2019-02-12T16:36:16.564Z,103837.14
2019-02-12T16:39:19.659Z,103841.66
2019-02-12T16:42:22.761Z,103849.93
2019-02-12T16:45:29.780Z,103854.54
2019-02-12T16:48:32.907Z,103854.83
2019-02-12T16:51:35.995Z,103853.18
2019-02-12T16:54:39.102Z,103863.81
2019-02-12T16:57:42.307Z,103858.31
2019-02-12T17:00:45.505Z,103867.72
2019-02-12T17:03:48.596Z,103866.25
2019-02-12T17:06:51.671Z,103865.39
2019-02-12T17:09:54.780Z,103871.43
2019-02-12T17:12:57.894Z,103881.12
2019-02-12T17:16:00.964Z,103883.76
2019-02-12T17:19:04.792Z,103889.30
2019-02-12T17:22:07.968Z,103890.52
2019-02-12T17:25:11.206Z,103890.98
2019-02-12T17:28:14.361Z,103899.31
2019-02-12T17:31:17.552Z,103902.90
2019-02-12T17:34:20.739Z,103914.82
2019-02-12T17:37:23.835Z,103909.89
2019-02-12T17:40:26.921Z,103900.89
2019-02-12T17:43:30.003Z,103906.70
2019-02-12T17:46:33.073Z,103909.93
2019-02-12T17:49:36.154Z,103913.66
2019-02-12T17:52:39.324Z,103907.75
2019-02-12T17:55:42.488Z,103913.58
2019-02-12T17:58:45.604Z,103915.99
2019-02-12T18:01:48.771Z,103925.19
2019-02-12T18:04:51.871Z,103932.20
2019-02-12T18:07:54.956Z,103937.02
2019-02-12T18:10:58.080Z,103944.53
2019-02-12T18:14:01.237Z,103944.67
2019-02-12T18:17:04.385Z,103952.50
2019-02-12T18:20:08.079Z,103952.11
2019-02-12T18:23:11.226Z,103958.82
2019-02-12T18:26:14.313Z,103958.16
2019-02-12T18:29:17.412Z,103960.24
2019-02-12T18:32:20.594Z,103965.37
2019-02-12T18:35:23.759Z,103964.63
2019-02-12T18:38:26.893Z,103972.18
2019-02-12T18:41:30.015Z,103968.63
2019-02-12T18:44:33.100Z,103964.35
2019-02-12T18:47:36.193Z,103971.15
2019-02-12T18:50:39.390Z,103971.88
2019-02-12T18:53:42.580Z,103977.24
2019-02-12T18:56:45.687Z,103973.22
2019-02-12T18:59:48.757Z,103961.53
2019-02-12T19:02:52.596Z,103968.78
2019-02-12T19:05:55.779Z,103974.26
2019-02-12T19:08:58.956Z,103981.50
2019-02-12T19:12:02.099Z,103978.47
2019-02-12T19:15:05.661Z,103986.42
2019-02-12T19:18:12.692Z,103981.04
2019-02-12T19:21:15.792Z,103986.20
2019-02-12T19:24:19.020Z,103988.42
2019-02-12T19:27:22.106Z,103988.52
2019-02-12T19:30:25.231Z,103996.59
2019-02-12T19:33:28.303Z,103999.11
2019-02-12T19:36:31.552Z,104001.98
2019-02-12T19:39:34.705Z,103999.79
2019-02-12T19:42:37.955Z,103993.95
2019-02-12T19:45:41.091Z,103996.79
2019-02-12T19:48:44.327Z,103996.46
2019-02-12T19:51:47.485Z,104009.68
2019-02-12T19:54:50.656Z,104018.98
2019-02-12T19:57:53.775Z,104011.03
2019-02-12T20:00:56.948Z,104011.48
2019-02-12T20:04:00.163Z,104007.56
2019-02-12T20:07:03.412Z,104006.56
2019-02-12T20:10:07.124Z,104007.53
2019-02-12T20:13:10.262Z,104010.44
2019-02-12T20:16:13.429Z,104013.45
2019-02-12T20:19:16.559Z,104012.61
2019-02-12T20:22:19.716Z,104013.28
2019-02-12T20:25:22.823Z,103998.58
2019-02-12T20:28:26.015Z,104008.86
2019-02-12T20:31:29.203Z,104011.27
2019-02-12T20:34:32.379Z,104013.44
2019-02-12T20:37:35.452Z,104019.53
2019-02-12T20:40:38.532Z,104017.65
2019-02-12T20:43:41.692Z,104023.26
2019-02-12T20:46:44.937Z,104024.12
2019-02-12T20:49:48.080Z,104023.48
2019-02-12T20:52:51.303Z,104021.44
2019-02-12T20:55:54.448Z,104025.43
2019-02-12T20:58:57.643Z,104022.22
2019-02-12T21:02:00.848Z,104026.56
2019-02-12T21:05:04.035Z,104034.24
2019-02-12T21:08:07.295Z,104046.11
2019-02-12T21:11:10.370Z,104046.03
2019-02-12T21:14:13.555Z,104043.21
2019-02-12T21:17:16.747Z,104046.10
2019-02-12T21:20:19.904Z,104039.02
2019-02-12T21:23:22.981Z,104043.60
2019-02-12T21:26:26.120Z,104049.28
2019-02-12T21:29:29.274Z,104046.40
2019-02-12T21:32:32.365Z,104043.26
2019-02-12T21:35:35.476Z,104036.19
2019-02-12T21:38:38.675Z,104025.76
2019-02-12T21:41:41.862Z,104022.36
2019-02-12T21:44:45.073Z,104023.45
2019-02-12T21:47:48.185Z,104046.78
2019-02-12T21:50:51.339Z,104058.46
2019-02-12T21:53:54.425Z,104058.79
2019-02-12T21:56:57.520Z,104051.19
2019-02-12T22:00:00.730Z,104056.29
2019-02-12T22:03:03.907Z,104059.61
2019-02-12T22:06:07.007Z,104057.20
2019-02-12T22:09:10.196Z,104062.60
2019-02-12T22:12:13.396Z,104069.84
2019-02-12T22:15:16.593Z,104070.78
2019-02-12T22:18:19.764Z,104066.83
2019-02-12T22:21:22.875Z,104054.46
2019-02-12T22:24:26.253Z,104044.91
2019-02-12T22:27:29.388Z,104039.02
2019-02-12T22:30:32.510Z,104042.29
2019-02-12T22:33:35.639Z,104048.70
2019-02-12T22:36:38.747Z,104052.17
2019-02-12T22:39:41.925Z,104058.16
2019-02-12T22:42:45.943Z,104068.13
2019-02-12T22:45:49.159Z,104074.16
2019-02-12T22:48:52.353Z,104070.40
2019-02-12T22:51:55.540Z,104058.39
2019-02-12T22:54:58.722Z,104049.72
2019-02-12T22:58:01.829Z,104056.80
2019-02-12T23:01:08.698Z,104057.04
2019-02-12T23:04:11.799Z,104060.99
2019-02-12T23:07:14.984Z,104055.92
2019-02-12T23:10:18.076Z,104053.98
2019-02-12T23:13:21.156Z,104059.47
2019-02-12T23:16:24.337Z,104069.99
2019-02-12T23:19:27.492Z,104070.87
2019-02-12T23:22:30.641Z,104077.12
2019-02-12T23:25:33.745Z,104079.34
2019-02-12T23:28:36.939Z,104076.14
2019-02-12T23:31:40.156Z,104066.35
2019-02-12T23:34:43.309Z,104071.02
2019-02-12T23:37:46.426Z,104069.11
2019-02-12T23:40:49.707Z,104062.49
2019-02-12T23:43:52.946Z,104052.31
2019-02-12T23:46:56.194Z,104059.00
2019-02-12T23:49:59.312Z,104071.66
2019-02-12T23:53:02.387Z,104075.96
2019-02-12T23:56:05.585Z,104074.64
2019-02-12T23:59:08.665Z,104079.63
